createdAt,value
2024-04-18T00:00:33.423Z,4.20
2024-04-18T00:03:00.032Z,4.19
2024-04-18T00:05:26.556Z,4.14
2024-04-18T00:07:53.017Z,4.08
2024-04-18T00:10:19.507Z,4.09
2024-04-18T00:12:46.040Z,4.08
2024-04-18T00:15:12.567Z,4.08
2024-04-18T00:17:39.086Z,4.13
2024-04-18T00:20:06.203Z,4.16
2024-04-18T00:22:32.691Z,4.17
2024-04-18T00:24:59.217Z,4.11
2024-04-18T00:27:25.822Z,4.08
2024-04-18T00:29:52.300Z,4.10
2024-04-18T00:32:18.901Z,4.15
2024-04-18T00:34:45.432Z,4.20
2024-04-18T00:37:11.896Z,4.25
2024-04-18T00:39:38.443Z,4.27
2024-04-18T00:42:05.027Z,4.30
2024-04-18T00:44:32.091Z,4.32
2024-04-18T00:46:58.611Z,4.33
2024-04-18T00:49:26.725Z,4.31
2024-04-18T00:51:55.265Z,4.29
2024-04-18T00:54:22.516Z,4.30
2024-04-18T00:56:49.088Z,4.30
2024-04-18T00:59:16.608Z,4.35
2024-04-18T01:01:46.610Z,4.36
2024-04-18T01:04:13.255Z,4.38
2024-04-18T01:06:39.915Z,4.39
2024-04-18T01:09:06.419Z,4.39
2024-04-18T01:11:33.500Z,4.41
2024-04-18T01:14:10.420Z,4.42
2024-04-18T01:16:36.852Z,4.47
2024-04-18T01:19:05.300Z,4.52
2024-04-18T01:21:32.003Z,4.58
2024-04-18T01:23:58.459Z,4.60
2024-04-18T01:26:24.960Z,4.66
2024-04-18T01:28:51.435Z,4.71
2024-04-18T01:31:17.899Z,4.73
2024-04-18T01:33:44.455Z,4.78
2024-04-18T01:36:11.076Z,4.81
2024-04-18T01:38:37.512Z,4.82
2024-04-18T01:41:04.050Z,4.84
2024-04-18T01:43:30.886Z,4.86
2024-04-18T01:45:57.320Z,4.87
2024-04-18T01:48:23.899Z,4.88
2024-04-18T01:50:50.369Z,4.85
2024-04-18T01:53:17.011Z,4.81
2024-04-18T01:55:44.379Z,4.78
2024-04-18T01:58:10.912Z,4.75
2024-04-18T02:00:43.913Z,4.70
2024-04-18T02:03:10.543Z,4.64
2024-04-18T02:05:37.152Z,4.58
2024-04-18T02:08:04.000Z,4.50
2024-04-18T02:10:30.440Z,4.43
2024-04-18T02:12:56.922Z,4.35
2024-04-18T02:15:26.850Z,4.28
2024-04-18T02:17:54.001Z,4.22
2024-04-18T02:20:21.212Z,4.15
2024-04-18T02:22:47.919Z,4.07
2024-04-18T02:25:14.566Z,4.00
2024-04-18T02:27:43.400Z,3.98
2024-04-18T02:30:11.835Z,4.00
2024-04-18T02:32:39.084Z,4.04
2024-04-18T02:35:06.040Z,4.10
2024-04-18T02:37:32.701Z,4.14
2024-04-18T02:39:59.180Z,4.19
2024-04-18T02:42:26.377Z,4.20
2024-04-18T02:44:53.406Z,4.21
2024-04-18T02:47:19.942Z,4.21
2024-04-18T02:49:46.472Z,4.24
2024-04-18T02:52:12.949Z,4.22
2024-04-18T02:54:39.539Z,4.25
2024-04-18T02:57:06.038Z,4.27
2024-04-18T02:59:32.589Z,4.35
2024-04-18T03:01:59.088Z,4.42
2024-04-18T03:04:25.659Z,4.48
2024-04-18T03:06:52.213Z,4.51
2024-04-18T03:09:18.698Z,4.56
2024-04-18T03:11:48.503Z,4.62
2024-04-18T03:14:15.096Z,4.69
2024-04-18T03:16:41.531Z,4.74
2024-04-18T03:19:14.002Z,4.77
2024-04-18T03:21:40.540Z,4.77
2024-04-18T03:24:20.142Z,4.75
2024-04-18T03:26:47.455Z,4.66
2024-04-18T03:29:14.195Z,4.63
2024-04-18T03:31:46.415Z,4.59
2024-04-18T03:34:12.940Z,4.55
2024-04-18T03:36:42.565Z,4.49
2024-04-18T03:39:09.631Z,4.46
2024-04-18T03:41:37.825Z,4.42
2024-04-18T03:44:06.443Z,4.35
2024-04-18T03:46:32.859Z,4.31
2024-04-18T03:48:59.424Z,4.35
2024-04-18T03:51:25.942Z,4.34
2024-04-18T03:53:52.471Z,4.37
2024-04-18T03:56:19.019Z,4.35
2024-04-18T03:58:45.419Z,4.31
2024-04-18T04:01:12.024Z,4.32
2024-04-18T04:03:38.708Z,4.26
2024-04-18T04:06:05.603Z,4.27
2024-04-18T04:08:32.071Z,4.30
2024-04-18T04:10:58.606Z,4.30
2024-04-18T04:13:25.080Z,4.32
2024-04-18T04:15:51.900Z,4.28
2024-04-18T04:18:18.850Z,4.21
2024-04-18T04:20:45.646Z,4.17
2024-04-18T04:23:12.116Z,4.14
2024-04-18T04:25:38.648Z,4.13
2024-04-18T04:28:05.141Z,4.17
2024-04-18T04:30:31.616Z,4.17
2024-04-18T04:32:58.097Z,4.19
2024-04-18T04:35:24.613Z,4.17
2024-04-18T04:37:51.039Z,4.17
2024-04-18T04:40:17.556Z,4.16
2024-04-18T04:42:44.212Z,4.22
2024-04-18T04:45:10.791Z,4.21
2024-04-18T04:47:37.316Z,4.20
2024-04-18T04:50:04.981Z,4.18
2024-04-18T04:52:31.477Z,4.09
2024-04-18T04:54:57.938Z,4.11
2024-04-18T04:57:24.469Z,4.18
2024-04-18T04:59:50.986Z,4.30
2024-04-18T05:02:17.586Z,4.32
2024-04-18T05:04:44.101Z,4.35
2024-04-18T05:07:10.601Z,4.31
2024-04-18T05:09:37.134Z,4.25
2024-04-18T05:12:04.058Z,4.10
2024-04-18T05:14:30.511Z,4.08
2024-04-18T05:16:57.026Z,4.14
2024-04-18T05:19:23.576Z,4.13
2024-04-18T05:21:51.191Z,4.13
2024-04-18T05:24:17.821Z,4.09
2024-04-18T05:26:44.360Z,4.00
2024-04-18T05:29:10.770Z,3.86
2024-04-18T05:31:39.891Z,3.98
2024-04-18T05:34:08.179Z,3.93
2024-04-18T05:36:34.853Z,3.93
2024-04-18T05:39:01.429Z,3.90
2024-04-18T05:41:27.839Z,3.92
2024-04-18T05:43:54.330Z,4.00
2024-04-18T05:46:20.799Z,3.97
2024-04-18T05:48:47.367Z,4.08
2024-04-18T05:51:13.998Z,4.17
2024-04-18T05:53:41.310Z,4.22
2024-04-18T05:56:07.993Z,4.22
2024-04-18T05:58:34.438Z,4.23
2024-04-18T06:01:01.000Z,4.27
2024-04-18T06:03:27.543Z,4.35
2024-04-18T06:05:54.152Z,4.42
2024-04-18T06:08:20.614Z,4.44
2024-04-18T06:10:47.297Z,4.46
2024-04-18T06:13:13.771Z,4.58
2024-04-18T06:15:43.549Z,4.60
2024-04-18T06:18:10.386Z,4.52
2024-04-18T06:20:42.548Z,4.50
2024-04-18T06:23:09.807Z,4.53
2024-04-18T06:25:36.960Z,4.56
2024-04-18T06:28:07.587Z,4.61
2024-04-18T06:30:34.251Z,4.65
2024-04-18T06:33:01.042Z,4.76
2024-04-18T06:35:27.599Z,4.62
2024-04-18T06:37:54.070Z,4.52
2024-04-18T06:40:20.528Z,4.67
2024-04-18T06:42:47.052Z,4.79
2024-04-18T06:45:13.612Z,5.02
2024-04-18T06:47:40.223Z,5.25
2024-04-18T06:50:06.842Z,5.35
2024-04-18T06:52:33.801Z,5.36
2024-04-18T06:55:00.409Z,5.24
2024-04-18T06:57:26.964Z,5.28
2024-04-18T06:59:53.411Z,5.38
2024-04-18T07:02:19.936Z,5.53
2024-04-18T07:04:46.942Z,5.75
2024-04-18T07:07:14.818Z,5.75
2024-04-18T07:09:41.225Z,5.72
2024-04-18T07:12:08.906Z,5.82
2024-04-18T07:14:35.361Z,5.83
2024-04-18T07:17:04.891Z,5.94
2024-04-18T07:19:31.538Z,6.10
2024-04-18T07:21:58.013Z,6.27
2024-04-18T07:24:24.526Z,6.28
2024-04-18T07:26:53.297Z,6.44
2024-04-18T07:29:21.215Z,6.52
2024-04-18T07:31:47.735Z,6.65
2024-04-18T07:34:15.165Z,6.77
2024-04-18T07:36:41.792Z,6.72
2024-04-18T07:39:08.284Z,6.64
2024-04-18T07:41:34.748Z,6.62
2024-04-18T07:44:01.171Z,6.73
2024-04-18T07:46:27.618Z,6.65
2024-04-18T07:48:54.091Z,6.75
2024-04-18T07:51:20.574Z,6.99
2024-04-18T07:53:47.048Z,7.14
2024-04-18T07:56:13.722Z,7.11
2024-04-18T07:58:40.855Z,7.18
2024-04-18T08:01:09.033Z,7.21
2024-04-18T08:03:39.126Z,7.23
2024-04-18T08:06:09.732Z,7.30
2024-04-18T08:08:40.868Z,7.13
2024-04-18T08:11:27.294Z,7.18
2024-04-18T08:13:58.465Z,7.42
2024-04-18T08:16:27.692Z,7.37
2024-04-18T08:18:54.214Z,7.42
2024-04-18T08:21:20.650Z,7.09
2024-04-18T08:23:47.113Z,7.39
2024-04-18T08:26:13.558Z,7.70
2024-04-18T08:28:40.123Z,7.73
2024-04-18T08:31:06.586Z,7.84
2024-04-18T08:33:33.072Z,7.99
2024-04-18T08:35:59.586Z,7.93
2024-04-18T08:38:26.075Z,8.05
2024-04-18T08:40:53.096Z,8.38
2024-04-18T08:43:20.078Z,8.41
2024-04-18T08:45:47.351Z,8.38
2024-04-18T08:48:14.689Z,8.68
2024-04-18T08:50:46.379Z,8.64
2024-04-18T08:53:13.017Z,8.86
2024-04-18T08:55:46.747Z,9.03
2024-04-18T08:58:13.762Z,9.17
2024-04-18T09:00:45.426Z,9.47
2024-04-18T09:03:12.111Z,9.42
2024-04-18T09:05:39.636Z,9.33
2024-04-18T09:08:06.524Z,9.42
2024-04-18T09:10:33.685Z,9.04
2024-04-18T09:13:03.977Z,8.84
2024-04-18T09:15:33.372Z,8.98
2024-04-18T09:18:04.983Z,9.39
2024-04-18T09:20:33.256Z,9.57
2024-04-18T09:22:59.736Z,9.42
2024-04-18T09:25:26.439Z,9.56
2024-04-18T09:27:53.157Z,9.70
2024-04-18T09:30:19.676Z,9.82
2024-04-18T09:32:48.453Z,9.65
2024-04-18T09:35:17.869Z,9.55
2024-04-18T09:37:50.034Z,9.76
2024-04-18T09:40:26.582Z,9.94
2024-04-18T09:43:22.351Z,10.04
2024-04-18T09:45:53.485Z,10.25
2024-04-18T09:48:21.551Z,10.00
2024-04-18T09:50:49.530Z,9.54
2024-04-18T09:53:16.136Z,8.63
2024-04-18T09:55:43.037Z,8.33
2024-04-18T09:58:10.818Z,7.86
2024-04-18T10:00:38.057Z,7.82
2024-04-18T10:03:05.566Z,7.63
2024-04-18T10:05:32.112Z,7.86
2024-04-18T10:08:00.896Z,8.14
2024-04-18T10:10:29.267Z,8.44
2024-04-18T10:12:55.904Z,8.58
2024-04-18T10:15:22.493Z,8.33
2024-04-18T10:17:49.055Z,8.25
2024-04-18T10:20:15.834Z,8.14
2024-04-18T10:22:47.393Z,8.39
2024-04-18T10:25:20.069Z,8.26
2024-04-18T10:27:46.630Z,8.39
2024-04-18T10:30:16.448Z,8.82
2024-04-18T10:32:45.602Z,9.24
2024-04-18T10:35:12.265Z,9.65
2024-04-18T10:37:48.786Z,9.84
2024-04-18T10:40:16.283Z,9.96
2024-04-18T10:42:42.672Z,9.88
2024-04-18T10:45:09.438Z,9.74
2024-04-18T10:47:36.683Z,9.50
2024-04-18T10:50:03.271Z,9.09
2024-04-18T10:52:29.803Z,9.03
2024-04-18T10:54:56.271Z,8.83
2024-04-18T10:57:22.840Z,8.90
2024-04-18T10:59:49.446Z,8.93
2024-04-18T11:02:15.979Z,9.04
2024-04-18T11:04:42.592Z,8.99
2024-04-18T11:07:09.075Z,8.92
2024-04-18T11:09:35.564Z,9.04
2024-04-18T11:12:03.026Z,9.28
2024-04-18T11:14:29.643Z,9.51
2024-04-18T11:16:57.458Z,10.07
2024-04-18T11:19:24.201Z,10.21
2024-04-18T11:21:51.188Z,10.53
2024-04-18T11:24:18.411Z,10.61
2024-04-18T11:26:45.084Z,10.47
2024-04-18T11:29:11.590Z,9.99
2024-04-18T11:31:38.071Z,9.94
2024-04-18T11:34:04.678Z,9.97
2024-04-18T11:36:31.171Z,10.05
2024-04-18T11:39:03.975Z,10.18
2024-04-18T11:41:31.074Z,10.45
2024-04-18T11:43:57.713Z,10.05
2024-04-18T11:46:24.179Z,10.20
2024-04-18T11:48:50.795Z,10.51
2024-04-18T11:51:17.278Z,10.42
2024-04-18T11:53:43.779Z,10.55
2024-04-18T11:56:10.270Z,10.33
2024-04-18T11:58:36.720Z,10.47
2024-04-18T12:01:03.361Z,10.72
2024-04-18T12:03:29.981Z,10.97
2024-04-18T12:05:56.893Z,11.14
2024-04-18T12:08:24.309Z,11.38
2024-04-18T12:10:50.743Z,11.30
2024-04-18T12:13:20.213Z,11.07
2024-04-18T12:15:46.768Z,10.71
2024-04-18T12:18:13.288Z,10.11
2024-04-18T12:20:39.766Z,10.11
2024-04-18T12:23:06.226Z,9.93
2024-04-18T12:25:32.720Z,9.76
2024-04-18T12:27:59.132Z,9.86
2024-04-18T12:30:28.154Z,10.09
2024-04-18T12:32:56.033Z,10.33
2024-04-18T12:35:22.710Z,10.58
2024-04-18T12:37:49.172Z,10.50
2024-04-18T12:40:15.626Z,10.71
2024-04-18T12:42:42.287Z,10.83
2024-04-18T12:45:08.863Z,10.93
2024-04-18T12:47:35.563Z,10.99
2024-04-18T12:50:02.323Z,10.98
2024-04-18T12:52:28.858Z,10.89
2024-04-18T12:54:55.334Z,10.75
2024-04-18T12:57:21.861Z,10.56
2024-04-18T12:59:48.333Z,10.38
2024-04-18T13:02:14.851Z,10.38
2024-04-18T13:04:41.348Z,10.39
2024-04-18T13:07:07.848Z,10.16
2024-04-18T13:09:34.662Z,10.42
2024-04-18T13:12:02.382Z,10.33
2024-04-18T13:14:28.857Z,10.36
2024-04-18T13:16:55.419Z,10.51
2024-04-18T13:19:23.240Z,10.61
2024-04-18T13:21:49.661Z,10.68
2024-04-18T13:24:16.148Z,10.70
2024-04-18T13:26:42.668Z,10.85
2024-04-18T13:29:09.144Z,10.82
2024-04-18T13:31:35.632Z,10.87
2024-04-18T13:34:02.180Z,10.83
2024-04-18T13:36:28.773Z,10.74
2024-04-18T13:38:55.309Z,10.73
2024-04-18T13:41:21.899Z,10.93
2024-04-18T13:43:48.382Z,11.02
2024-04-18T13:46:14.849Z,11.01
2024-04-18T13:48:41.381Z,11.20
2024-04-18T13:51:07.902Z,11.08
2024-04-18T13:53:34.654Z,10.97
2024-04-18T13:56:01.114Z,11.00
2024-04-18T13:58:27.614Z,11.40
2024-04-18T14:00:54.095Z,11.43
2024-04-18T14:03:20.743Z,11.48
2024-04-18T14:05:47.435Z,11.36
2024-04-18T14:08:14.047Z,11.52
2024-04-18T14:10:40.611Z,11.61
2024-04-18T14:13:07.144Z,11.95
2024-04-18T14:15:33.664Z,12.16
2024-04-18T14:18:00.196Z,12.19
2024-04-18T14:20:26.702Z,12.12
2024-04-18T14:22:53.165Z,12.01
2024-04-18T14:25:19.700Z,11.64
2024-04-18T14:27:46.256Z,11.74
2024-04-18T14:30:12.797Z,11.85
2024-04-18T14:32:39.344Z,12.02
2024-04-18T14:35:06.415Z,12.04
2024-04-18T14:37:33.076Z,12.02
2024-04-18T14:39:59.541Z,11.68
2024-04-18T14:42:26.102Z,11.46
2024-04-18T14:44:52.631Z,11.21
2024-04-18T14:47:19.856Z,10.80
2024-04-18T14:49:46.285Z,10.12
2024-04-18T14:52:12.802Z,9.83
2024-04-18T14:54:39.304Z,9.39
2024-04-18T14:57:05.830Z,9.12
2024-04-18T14:59:32.328Z,8.97
2024-04-18T15:01:58.791Z,8.83
2024-04-18T15:04:26.671Z,8.82
2024-04-18T15:06:54.745Z,8.87
2024-04-18T15:09:21.177Z,8.85
2024-04-18T15:11:47.714Z,8.70
2024-04-18T15:14:14.133Z,8.72
2024-04-18T15:16:40.616Z,8.93
2024-04-18T15:19:07.143Z,9.17
2024-04-18T15:21:33.798Z,9.24
2024-04-18T15:24:00.289Z,9.27
2024-04-18T15:26:26.731Z,9.39
2024-04-18T15:28:53.211Z,9.40
2024-04-18T15:31:19.670Z,9.37
2024-04-18T15:33:46.179Z,9.42
2024-04-18T15:36:12.729Z,9.51
2024-04-18T15:38:39.282Z,9.65
2024-04-18T15:41:05.763Z,9.78
2024-04-18T15:43:32.186Z,9.87
2024-04-18T15:46:02.490Z,9.94
2024-04-18T15:48:29.039Z,10.05
2024-04-18T15:50:58.949Z,10.10
2024-04-18T15:53:25.498Z,10.16
2024-04-18T15:55:51.981Z,9.96
2024-04-18T15:58:21.683Z,9.90
2024-04-18T16:00:49.449Z,9.94
2024-04-18T16:03:16.045Z,9.96
2024-04-18T16:05:43.307Z,9.82
2024-04-18T16:08:11.450Z,9.64
2024-04-18T16:10:38.132Z,9.82
2024-04-18T16:13:04.697Z,9.84
2024-04-18T16:15:31.170Z,9.69
2024-04-18T16:17:58.589Z,9.61
2024-04-18T16:20:25.196Z,9.71
2024-04-18T16:22:51.671Z,9.82
2024-04-18T16:25:18.105Z,9.89
2024-04-18T16:27:44.669Z,9.93
2024-04-18T16:30:11.491Z,10.15
2024-04-18T16:32:38.103Z,10.35
2024-04-18T16:35:04.821Z,10.55
2024-04-18T16:37:31.409Z,10.67
2024-04-18T16:39:57.863Z,10.86
2024-04-18T16:42:24.431Z,11.17
2024-04-18T16:44:50.998Z,11.42
2024-04-18T16:47:17.476Z,11.66
2024-04-18T16:49:43.963Z,11.83
2024-04-18T16:52:11.300Z,11.97
2024-04-18T16:54:37.904Z,12.06
2024-04-18T16:57:04.615Z,12.24
2024-04-18T16:59:31.131Z,12.55
2024-04-18T17:01:57.631Z,12.75
2024-04-18T17:04:24.229Z,13.06
2024-04-18T17:06:50.808Z,13.02
2024-04-18T17:09:17.435Z,12.88
2024-04-18T17:11:44.326Z,12.84
2024-04-18T17:14:10.804Z,12.42
2024-04-18T17:16:37.236Z,12.24
2024-04-18T17:19:03.778Z,12.17
2024-04-18T17:21:30.417Z,12.06
2024-04-18T17:23:56.958Z,12.05
2024-04-18T17:26:25.805Z,12.03
2024-04-18T17:28:54.465Z,11.89
2024-04-18T17:31:20.932Z,11.67
2024-04-18T17:33:47.428Z,11.30
2024-04-18T17:36:13.957Z,10.94
2024-04-18T17:38:42.505Z,10.44
2024-04-18T17:41:09.238Z,10.06
2024-04-18T17:43:35.791Z,9.66
2024-04-18T17:46:02.235Z,9.33
2024-04-18T17:48:28.819Z,9.02
2024-04-18T17:50:55.431Z,8.77
2024-04-18T17:53:21.936Z,8.55
2024-04-18T17:55:49.457Z,8.31
2024-04-18T17:58:17.081Z,8.11
2024-04-18T18:00:43.588Z,7.96
2024-04-18T18:03:10.171Z,7.85
2024-04-18T18:05:36.782Z,7.70
2024-04-18T18:08:03.396Z,7.60
2024-04-18T18:10:29.828Z,7.51
2024-04-18T18:12:56.413Z,7.43
2024-04-18T18:15:23.004Z,7.32
2024-04-18T18:17:49.663Z,7.32
2024-04-18T18:20:16.304Z,7.33
2024-04-18T18:22:42.792Z,7.34
2024-04-18T18:25:09.262Z,7.33
2024-04-18T18:27:35.867Z,7.28
2024-04-18T18:30:02.396Z,7.18
2024-04-18T18:32:28.869Z,7.17
2024-04-18T18:34:55.420Z,7.07
2024-04-18T18:37:21.921Z,7.00
2024-04-18T18:39:48.438Z,6.92
2024-04-18T18:42:14.963Z,6.83
2024-04-18T18:44:41.484Z,6.82
2024-04-18T18:47:08.034Z,6.86
2024-04-18T18:49:34.544Z,6.87
2024-04-18T18:52:01.047Z,6.86
2024-04-18T18:54:27.727Z,6.84
2024-04-18T18:56:54.206Z,6.82
2024-04-18T18:59:20.660Z,6.82
2024-04-18T19:01:47.185Z,6.81
2024-04-18T19:04:15.036Z,6.81
2024-04-18T19:06:41.837Z,6.81
2024-04-18T19:09:08.371Z,6.77
2024-04-18T19:11:34.916Z,6.71
2024-04-18T19:14:02.076Z,6.69
2024-04-18T19:16:28.563Z,6.67
2024-04-18T19:18:55.091Z,6.61
2024-04-18T19:21:21.656Z,6.59
2024-04-18T19:23:48.119Z,6.56
2024-04-18T19:26:14.643Z,6.49
2024-04-18T19:28:42.091Z,6.42
2024-04-18T19:31:09.894Z,6.37
2024-04-18T19:33:37.033Z,6.30
2024-04-18T19:36:03.832Z,6.23
2024-04-18T19:38:30.289Z,6.20
2024-04-18T19:41:03.687Z,6.18
2024-04-18T19:43:30.166Z,6.08
2024-04-18T19:46:00.366Z,6.04
2024-04-18T19:48:28.390Z,6.02
2024-04-18T19:50:55.428Z,5.95
2024-04-18T19:53:23.006Z,5.93
2024-04-18T19:55:50.017Z,5.92
2024-04-18T19:58:19.635Z,5.93
2024-04-18T20:00:46.370Z,5.97
2024-04-18T20:03:13.245Z,6.03
2024-04-18T20:05:40.569Z,6.04
2024-04-18T20:08:07.840Z,6.05
2024-04-18T20:10:35.072Z,6.07
2024-04-18T20:13:01.873Z,6.07
2024-04-18T20:17:55.373Z,6.04
2024-04-18T20:20:21.992Z,5.98
2024-04-18T20:22:48.455Z,5.94
2024-04-18T20:25:14.978Z,5.89
2024-04-18T20:27:41.619Z,5.82
2024-04-18T20:30:09.077Z,5.74
2024-04-18T20:32:35.701Z,5.65
2024-04-18T20:35:02.360Z,5.61
2024-04-18T20:37:28.825Z,5.57
2024-04-18T20:39:58.631Z,5.51
2024-04-18T20:42:26.147Z,5.47
2024-04-18T20:44:52.603Z,5.44
2024-04-18T20:47:19.139Z,5.39
2024-04-18T20:49:45.634Z,5.34
2024-04-18T20:52:12.148Z,5.31
2024-04-18T20:54:38.898Z,5.29
2024-04-18T20:57:05.750Z,5.28
2024-04-18T20:59:32.345Z,5.25
2024-04-18T21:01:58.973Z,5.21
2024-04-18T21:04:25.695Z,5.16
2024-04-18T21:06:52.416Z,5.12
2024-04-18T21:09:19.170Z,5.09
2024-04-18T21:11:45.854Z,5.08
2024-04-18T21:14:12.468Z,5.06
2024-04-18T21:16:39.116Z,5.08
2024-04-18T21:19:06.259Z,5.10
2024-04-18T21:21:33.004Z,5.12
2024-04-18T21:23:59.626Z,5.15
2024-04-18T21:26:26.223Z,5.18
2024-04-18T21:28:52.812Z,5.20
2024-04-18T21:31:19.508Z,5.23
2024-04-18T21:33:46.278Z,5.27
2024-04-18T21:36:13.066Z,5.30
2024-04-18T21:38:50.806Z,5.32
2024-04-18T21:41:25.457Z,5.34
2024-04-18T21:43:55.927Z,5.33
2024-04-18T21:46:22.713Z,5.30
2024-04-18T21:48:49.835Z,5.28
2024-04-18T21:51:16.707Z,5.27
2024-04-18T21:53:43.345Z,5.25
2024-04-18T21:56:10.783Z,5.26
2024-04-18T21:58:37.562Z,5.22
2024-04-18T22:01:04.701Z,5.20
2024-04-18T22:03:31.727Z,5.18
2024-04-18T22:05:58.420Z,5.17
2024-04-18T22:08:25.076Z,5.15
2024-04-18T22:10:51.856Z,5.17
2024-04-18T22:13:18.612Z,5.21
2024-04-18T22:15:45.345Z,5.26
2024-04-18T22:18:12.227Z,5.30
2024-04-18T22:20:39.077Z,5.33
2024-04-18T22:23:05.667Z,5.38
2024-04-18T22:25:32.302Z,5.43
2024-04-18T22:27:59.076Z,5.46
2024-04-18T22:30:25.713Z,5.52
2024-04-18T22:32:52.430Z,5.53
2024-04-18T22:35:19.213Z,5.52
2024-04-18T22:37:45.898Z,5.53
2024-04-18T22:40:12.627Z,5.53
2024-04-18T22:42:39.259Z,5.55
2024-04-18T22:45:06.185Z,5.55
2024-04-18T22:47:32.935Z,5.53
2024-04-18T22:49:59.592Z,5.53
2024-04-18T22:52:26.181Z,5.54
2024-04-18T22:54:52.853Z,5.55
2024-04-18T22:57:19.534Z,5.52
2024-04-18T22:59:46.205Z,5.57
2024-04-18T23:02:13.812Z,5.60
2024-04-18T23:04:40.459Z,5.63
2024-04-18T23:07:08.957Z,5.68
2024-04-18T23:09:35.844Z,5.71
2024-04-18T23:12:02.999Z,5.73
2024-04-18T23:14:29.779Z,5.74
2024-04-18T23:16:56.414Z,5.76
2024-04-18T23:19:23.058Z,5.75
2024-04-18T23:21:49.793Z,5.76
2024-04-18T23:24:16.414Z,5.80
2024-04-18T23:26:43.041Z,5.85
2024-04-18T23:29:09.787Z,5.88
2024-04-18T23:31:36.418Z,5.90
2024-04-18T23:34:03.077Z,5.91
2024-04-18T23:36:29.751Z,5.91
2024-04-18T23:38:56.427Z,5.87
2024-04-18T23:41:23.115Z,5.86
2024-04-18T23:43:49.752Z,5.86
2024-04-18T23:46:16.433Z,5.83
2024-04-18T23:48:43.305Z,5.79
2024-04-18T23:51:10.123Z,5.77
2024-04-18T23:53:36.782Z,5.71
2024-04-18T23:56:03.550Z,5.67
2024-04-18T23:58:30.971Z,5.64
